sensor_id;sensor_type;location;lat;lon;timestamp;temperature;humidity
70548;DHT22;58099;43.406;3.698;2022-12-17T00:02:47;8.00;99.90
70548;DHT22;58099;43.406;3.698;2022-12-17T00:05:32;8.00;99.90
70548;DHT22;58099;43.406;3.698;2022-12-17T00:08:16;8.00;99.90
70548;DHT22;58099;43.406;3.698;2022-12-17T00:11:00;8.10;99.90
70548;DHT22;58099;43.406;3.698;2022-12-17T00:13:44;8.10;99.90
70548;DHT22;58099;43.406;3.698;2022-12-17T00:16:28;8.10;99.90
70548;DHT22;58099;43.406;3.698;2022-12-17T00:19:13;8.00;99.90
70548;DHT22;58099;43.406;3.698;2022-12-17T00:21:57;8.10;99.90
70548;DHT22;58099;43.406;3.698;2022-12-17T02:26:03;7.20;99.90
70548;DHT22;58099;43.406;3.698;2022-12-17T02:28:52;7.10;99.90
70548;DHT22;58099;43.406;3.698;2022-12-17T02:31:40;7.20;99.90
70548;DHT22;58099;43.406;3.698;2022-12-17T02:34:25;7.20;99.90
70548;DHT22;58099;43.406;3.698;2022-12-17T02:37:09;7.20;99.90
70548;DHT22;58099;43.406;3.698;2022-12-17T02:39:53;7.20;99.90
70548;DHT22;58099;43.406;3.698;2022-12-17T02:42:37;7.20;99.90
70548;DHT22;58099;43.406;3.698;2022-12-17T02:45:21;7.30;99.90
70548;DHT22;58099;43.406;3.698;2022-12-17T02:48:07;7.30;99.90
70548;DHT22;58099;43.406;3.698;2022-12-17T02:50:53;7.20;99.90
70548;DHT22;58099;43.406;3.698;2022-12-17T02:53:45;7.20;99.90
70548;DHT22;58099;43.406;3.698;2022-12-17T02:56:33;7.20;99.90
70548;DHT22;58099;43.406;3.698;2022-12-17T02:59:33;7.20;99.90
70548;DHT22;58099;43.406;3.698;2022-12-17T03:02:17;7.10;99.90
70548;DHT22;58099;43.406;3.698;2022-12-17T03:05:02;7.10;99.90
70548;DHT22;58099;43.406;3.698;2022-12-17T03:07:46;7.00;99.90
70548;DHT22;58099;43.406;3.698;2022-12-17T03:10:30;6.90;99.90
70548;DHT22;58099;43.406;3.698;2022-12-17T03:13:22;7.00;99.90
70548;DHT22;58099;43.406;3.698;2022-12-17T06:58:47;5.80;99.90
70548;DHT22;58099;43.406;3.698;2022-12-17T07:01:31;5.80;99.90
70548;DHT22;58099;43.406;3.698;2022-12-17T07:04:15;5.80;99.90
70548;DHT22;58099;43.406;3.698;2022-12-17T07:06:59;5.80;99.90
70548;DHT22;58099;43.406;3.698;2022-12-17T07:09:44;5.80;99.90
70548;DHT22;58099;43.406;3.698;2022-12-17T07:12:28;5.70;99.90
70548;DHT22;58099;43.406;3.698;2022-12-17T07:15:12;5.70;99.90
70548;DHT22;58099;43.406;3.698;2022-12-17T07:18:01;5.70;99.90
70548;DHT22;58099;43.406;3.698;2022-12-17T07:20:47;5.70;99.90
70548;DHT22;58099;43.406;3.698;2022-12-17T07:23:36;5.80;99.90
70548;DHT22;58099;43.406;3.698;2022-12-17T07:26:21;6.20;99.90
70548;DHT22;58099;43.406;3.698;2022-12-17T07:29:05;6.50;99.90
70548;DHT22;58099;43.406;3.698;2022-12-17T07:31:49;6.90;99.90
70548;DHT22;58099;43.406;3.698;2022-12-17T07:34:33;7.40;99.90
70548;DHT22;58099;43.406;3.698;2022-12-17T07:37:17;7.80;99.90
70548;DHT22;58099;43.406;3.698;2022-12-17T07:40:02;8.20;99.90
70548;DHT22;58099;43.406;3.698;2022-12-17T07:42:46;8.60;99.90
70548;DHT22;58099;43.406;3.698;2022-12-17T07:45:30;8.90;99.90
70548;DHT22;58099;43.406;3.698;2022-12-17T07:48:14;9.20;99.20
70548;DHT22;58099;43.406;3.698;2022-12-17T07:51:12;9.50;98.60
70548;DHT22;58099;43.406;3.698;2022-12-17T07:53:56;9.80;97.90
70548;DHT22;58099;43.406;3.698;2022-12-17T07:56:41;10.10;97.80
70548;DHT22;58099;43.406;3.698;2022-12-17T07:59:24;10.40;96.80
70548;DHT22;58099;43.406;3.698;2022-12-17T08:02:09;10.30;96.10
70548;DHT22;58099;43.406;3.698;2022-12-17T08:04:53;10.40;95.40
70548;DHT22;58099;43.406;3.698;2022-12-17T08:07:38;10.60;95.50
70548;DHT22;58099;43.406;3.698;2022-12-17T08:10:22;11.10;95.40
70548;DHT22;58099;43.406;3.698;2022-12-17T08:13:06;11.40;94.90
70548;DHT22;58099;43.406;3.698;2022-12-17T08:15:51;11.70;94.40
70548;DHT22;58099;43.406;3.698;2022-12-17T08:18:36;11.70;94.60
70548;DHT22;58099;43.406;3.698;2022-12-17T08:21:20;11.90;94.10
70548;DHT22;58099;43.406;3.698;2022-12-17T08:24:24;12.00;93.70
70548;DHT22;58099;43.406;3.698;2022-12-17T08:27:08;12.30;92.50
70548;DHT22;58099;43.406;3.698;2022-12-17T08:29:53;12.50;92.50
70548;DHT22;58099;43.406;3.698;2022-12-17T08:32:37;12.80;92.50
70548;DHT22;58099;43.406;3.698;2022-12-17T08:35:21;12.90;91.70
70548;DHT22;58099;43.406;3.698;2022-12-17T08:38:05;12.90;92.60
70548;DHT22;58099;43.406;3.698;2022-12-17T08:40:50;13.00;91.70
70548;DHT22;58099;43.406;3.698;2022-12-17T08:43:34;13.30;91.60
70548;DHT22;58099;43.406;3.698;2022-12-17T08:46:18;13.20;91.00
70548;DHT22;58099;43.406;3.698;2022-12-17T08:49:03;13.30;91.20
70548;DHT22;58099;43.406;3.698;2022-12-17T08:51:47;13.30;91.10
70548;DHT22;58099;43.406;3.698;2022-12-17T08:54:31;13.70;91.10
70548;DHT22;58099;43.406;3.698;2022-12-17T08:57:15;13.70;90.70
70548;DHT22;58099;43.406;3.698;2022-12-17T08:59:59;14.00;90.80
70548;DHT22;58099;43.406;3.698;2022-12-17T09:02:43;14.00;90.10
70548;DHT22;58099;43.406;3.698;2022-12-17T09:05:27;13.90;89.90
70548;DHT22;58099;43.406;3.698;2022-12-17T09:08:11;13.80;90.30
70548;DHT22;58099;43.406;3.698;2022-12-17T09:10:58;14.10;90.10
70548;DHT22;58099;43.406;3.698;2022-12-17T09:13:43;14.40;90.70
70548;DHT22;58099;43.406;3.698;2022-12-17T09:16:27;14.50;90.00
70548;DHT22;58099;43.406;3.698;2022-12-17T09:19:11;14.80;90.10
70548;DHT22;58099;43.406;3.698;2022-12-17T09:21:55;15.00;89.90
70548;DHT22;58099;43.406;3.698;2022-12-17T09:24:40;15.20;90.00
70548;DHT22;58099;43.406;3.698;2022-12-17T09:27:24;15.50;90.20
70548;DHT22;58099;43.406;3.698;2022-12-17T09:30:08;15.70;90.00
70548;DHT22;58099;43.406;3.698;2022-12-17T09:32:52;15.70;89.20
70548;DHT22;58099;43.406;3.698;2022-12-17T09:35:38;15.50;89.90
70548;DHT22;58099;43.406;3.698;2022-12-17T09:38:22;15.50;90.00
70548;DHT22;58099;43.406;3.698;2022-12-17T09:41:27;16.10;90.00
70548;DHT22;58099;43.406;3.698;2022-12-17T09:44:47;16.40;89.20
70548;DHT22;58099;43.406;3.698;2022-12-17T09:48:12;16.20;90.10
70548;DHT22;58099;43.406;3.698;2022-12-17T09:50:58;16.60;90.00
70548;DHT22;58099;43.406;3.698;2022-12-17T09:53:49;16.80;89.30
70548;DHT22;58099;43.406;3.698;2022-12-17T09:56:35;16.80;90.00
70548;DHT22;58099;43.406;3.698;2022-12-17T09:59:21;16.70;90.00
70548;DHT22;58099;43.406;3.698;2022-12-17T10:02:18;16.60;89.70
70548;DHT22;58099;43.406;3.698;2022-12-17T10:05:06;16.40;89.90
70548;DHT22;58099;43.406;3.698;2022-12-17T10:07:52;16.80;90.20
70548;DHT22;58099;43.406;3.698;2022-12-17T10:10:44;17.20;89.60
70548;DHT22;58099;43.406;3.698;2022-12-17T10:13:28;17.40;88.80
70548;DHT22;58099;43.406;3.698;2022-12-17T10:16:37;17.00;88.20
70548;DHT22;58099;43.406;3.698;2022-12-17T10:19:32;16.90;88.70
70548;DHT22;58099;43.406;3.698;2022-12-17T10:22:19;16.90;88.70
70548;DHT22;58099;43.406;3.698;2022-12-17T10:25:13;16.40;87.00
70548;DHT22;58099;43.406;3.698;2022-12-17T10:28:04;16.40;88.40
70548;DHT22;58099;43.406;3.698;2022-12-17T10:30:49;16.50;87.70
70548;DHT22;58099;43.406;3.698;2022-12-17T10:33:37;16.70;88.70
70548;DHT22;58099;43.406;3.698;2022-12-17T10:36:23;17.00;87.30
70548;DHT22;58099;43.406;3.698;2022-12-17T10:39:15;17.00;86.80
70548;DHT22;58099;43.406;3.698;2022-12-17T10:42:01;17.00;87.00
70548;DHT22;58099;43.406;3.698;2022-12-17T10:44:45;17.40;86.10
70548;DHT22;58099;43.406;3.698;2022-12-17T10:47:29;17.70;87.10
70548;DHT22;58099;43.406;3.698;2022-12-17T10:50:23;17.80;85.70
70548;DHT22;58099;43.406;3.698;2022-12-17T10:53:21;18.00;85.90
70548;DHT22;58099;43.406;3.698;2022-12-17T10:56:06;18.10;85.80
70548;DHT22;58099;43.406;3.698;2022-12-17T10:59:10;17.90;84.10
70548;DHT22;58099;43.406;3.698;2022-12-17T11:01:58;17.50;84.30
70548;DHT22;58099;43.406;3.698;2022-12-17T11:04:52;17.60;85.10
70548;DHT22;58099;43.406;3.698;2022-12-17T11:07:40;17.20;84.50
70548;DHT22;58099;43.406;3.698;2022-12-17T11:10:29;17.50;86.00
70548;DHT22;58099;43.406;3.698;2022-12-17T11:13:34;18.00;84.00
70548;DHT22;58099;43.406;3.698;2022-12-17T11:16:25;18.50;83.10
70548;DHT22;58099;43.406;3.698;2022-12-17T11:21:56;18.80;80.80
70548;DHT22;58099;43.406;3.698;2022-12-17T11:27:36;18.60;81.80
70548;DHT22;58099;43.406;3.698;2022-12-17T11:30:26;18.70;80.30
70548;DHT22;58099;43.406;3.698;2022-12-17T11:33:25;18.50;80.10
70548;DHT22;58099;43.406;3.698;2022-12-17T11:36:26;17.90;79.10
70548;DHT22;58099;43.406;3.698;2022-12-17T11:43:15;18.30;79.80
70548;DHT22;58099;43.406;3.698;2022-12-17T11:55:19;17.80;80.00
70548;DHT22;58099;43.406;3.698;2022-12-17T12:01:18;18.30;77.90
70548;DHT22;58099;43.406;3.698;2022-12-17T12:10:17;19.20;79.00
70548;DHT22;58099;43.406;3.698;2022-12-17T12:13:18;19.50;79.40
70548;DHT22;58099;43.406;3.698;2022-12-17T12:16:58;19.50;76.50
70548;DHT22;58099;43.406;3.698;2022-12-17T12:19:44;18.30;76.80
70548;DHT22;58099;43.406;3.698;2022-12-17T12:22:39;17.40;81.50
70548;DHT22;58099;43.406;3.698;2022-12-17T12:25:36;16.70;83.80
70548;DHT22;58099;43.406;3.698;2022-12-17T12:28:40;16.90;83.30
70548;DHT22;58099;43.406;3.698;2022-12-17T12:34:24;16.70;84.00
70548;DHT22;58099;43.406;3.698;2022-12-17T12:37:12;16.40;84.80
70548;DHT22;58099;43.406;3.698;2022-12-17T12:43:16;16.40;86.80
70548;DHT22;58099;43.406;3.698;2022-12-17T12:46:54;15.90;86.00
70548;DHT22;58099;43.406;3.698;2022-12-17T12:49:22;15.80;86.90
70548;DHT22;58099;43.406;3.698;2022-12-17T12:52:10;15.60;86.30
70548;DHT22;58099;43.406;3.698;2022-12-17T12:54:55;15.40;87.50
70548;DHT22;58099;43.406;3.698;2022-12-17T12:57:54;15.00;87.50
70548;DHT22;58099;43.406;3.698;2022-12-17T13:00:59;15.20;88.40
70548;DHT22;58099;43.406;3.698;2022-12-17T13:06:41;15.90;86.00
70548;DHT22;58099;43.406;3.698;2022-12-17T13:15:01;15.80;85.90
70548;DHT22;58099;43.406;3.698;2022-12-17T13:17:40;16.20;86.70
70548;DHT22;58099;43.406;3.698;2022-12-17T13:23:04;15.80;85.30
70548;DHT22;58099;43.406;3.698;2022-12-17T13:25:30;15.70;86.20
70548;DHT22;58099;43.406;3.698;2022-12-17T13:27:56;15.40;85.60
70548;DHT22;58099;43.406;3.698;2022-12-17T13:30:29;15.00;85.20
70548;DHT22;58099;43.406;3.698;2022-12-17T13:33:33;15.10;85.50
70548;DHT22;58099;43.406;3.698;2022-12-17T13:36:18;15.20;84.50
70548;DHT22;58099;43.406;3.698;2022-12-17T13:41:19;15.50;85.90
70548;DHT22;58099;43.406;3.698;2022-12-17T13:43:51;15.20;84.70
70548;DHT22;58099;43.406;3.698;2022-12-17T13:46:23;15.30;85.50
70548;DHT22;58099;43.406;3.698;2022-12-17T13:49:04;15.40;84.80
70548;DHT22;58099;43.406;3.698;2022-12-17T13:51:33;15.20;84.70
70548;DHT22;58099;43.406;3.698;2022-12-17T13:54:01;15.20;84.90
70548;DHT22;58099;43.406;3.698;2022-12-17T13:56:32;15.10;84.10
70548;DHT22;58099;43.406;3.698;2022-12-17T13:59:00;15.10;84.10
70548;DHT22;58099;43.406;3.698;2022-12-17T14:01:30;14.80;84.50
70548;DHT22;58099;43.406;3.698;2022-12-17T14:03:58;15.00;85.00
70548;DHT22;58099;43.406;3.698;2022-12-17T14:06:33;15.00;84.50
70548;DHT22;58099;43.406;3.698;2022-12-17T14:09:00;14.80;84.60
70548;DHT22;58099;43.406;3.698;2022-12-17T14:11:26;14.90;84.90
70548;DHT22;58099;43.406;3.698;2022-12-17T14:14:32;14.60;84.50
70548;DHT22;58099;43.406;3.698;2022-12-17T14:16:59;14.20;85.00
70548;DHT22;58099;43.406;3.698;2022-12-17T14:19:25;13.70;85.70
70548;DHT22;58099;43.406;3.698;2022-12-17T14:21:52;13.60;86.00
70548;DHT22;58099;43.406;3.698;2022-12-17T14:24:20;13.90;85.40
70548;DHT22;58099;43.406;3.698;2022-12-17T14:26:56;13.80;85.10
70548;DHT22;58099;43.406;3.698;2022-12-17T14:29:29;13.40;84.10
70548;DHT22;58099;43.406;3.698;2022-12-17T14:31:58;13.60;83.40
70548;DHT22;58099;43.406;3.698;2022-12-17T14:34:24;13.40;83.30
70548;DHT22;58099;43.406;3.698;2022-12-17T14:36:55;13.20;82.00
70548;DHT22;58099;43.406;3.698;2022-12-17T14:39:22;13.20;83.10
70548;DHT22;58099;43.406;3.698;2022-12-17T14:41:49;13.10;83.70
70548;DHT22;58099;43.406;3.698;2022-12-17T14:44:34;13.20;84.30
70548;DHT22;58099;43.406;3.698;2022-12-17T14:47:11;13.00;84.50
70548;DHT22;58099;43.406;3.698;2022-12-17T14:52:31;12.70;85.90
70548;DHT22;58099;43.406;3.698;2022-12-17T14:54:57;12.80;85.90
70548;DHT22;58099;43.406;3.698;2022-12-17T14:57:23;13.00;85.90
70548;DHT22;58099;43.406;3.698;2022-12-17T14:59:49;13.10;86.70
70548;DHT22;58099;43.406;3.698;2022-12-17T15:02:23;13.00;86.40
70548;DHT22;58099;43.406;3.698;2022-12-17T15:04:52;13.20;86.10
70548;DHT22;58099;43.406;3.698;2022-12-17T15:07:29;13.20;85.60
70548;DHT22;58099;43.406;3.698;2022-12-17T15:09:55;13.20;84.30
70548;DHT22;58099;43.406;3.698;2022-12-17T15:12:22;13.10;84.40
70548;DHT22;58099;43.406;3.698;2022-12-17T15:14:49;13.00;84.40
70548;DHT22;58099;43.406;3.698;2022-12-17T15:17:15;12.90;84.50
70548;DHT22;58099;43.406;3.698;2022-12-17T15:19:41;12.60;84.10
70548;DHT22;58099;43.406;3.698;2022-12-17T15:22:17;12.20;84.70
70548;DHT22;58099;43.406;3.698;2022-12-17T15:24:43;12.00;85.00
70548;DHT22;58099;43.406;3.698;2022-12-17T15:27:13;12.00;86.10
70548;DHT22;58099;43.406;3.698;2022-12-17T15:29:41;11.80;86.60
70548;DHT22;58099;43.406;3.698;2022-12-17T15:32:09;11.70;86.70
70548;DHT22;58099;43.406;3.698;2022-12-17T15:34:37;11.60;87.40
70548;DHT22;58099;43.406;3.698;2022-12-17T15:37:03;11.50;88.20
70548;DHT22;58099;43.406;3.698;2022-12-17T15:39:28;11.40;88.40
70548;DHT22;58099;43.406;3.698;2022-12-17T15:41:54;11.20;89.20
70548;DHT22;58099;43.406;3.698;2022-12-17T15:44:38;11.30;89.80
70548;DHT22;58099;43.406;3.698;2022-12-17T15:47:04;11.20;90.10
70548;DHT22;58099;43.406;3.698;2022-12-17T15:49:30;11.20;90.40
70548;DHT22;58099;43.406;3.698;2022-12-17T15:51:55;11.20;90.70
70548;DHT22;58099;43.406;3.698;2022-12-17T15:54:21;11.30;91.10
70548;DHT22;58099;43.406;3.698;2022-12-17T15:56:52;11.30;90.90
70548;DHT22;58099;43.406;3.698;2022-12-17T15:59:18;11.30;91.00
70548;DHT22;58099;43.406;3.698;2022-12-17T16:01:44;11.20;91.30
70548;DHT22;58099;43.406;3.698;2022-12-17T16:04:09;11.10;90.70
70548;DHT22;58099;43.406;3.698;2022-12-17T16:06:35;11.10;91.10
70548;DHT22;58099;43.406;3.698;2022-12-17T16:09:01;11.10;91.00
70548;DHT22;58099;43.406;3.698;2022-12-17T16:11:27;11.10;91.10
70548;DHT22;58099;43.406;3.698;2022-12-17T16:13:53;11.00;91.80
70548;DHT22;58099;43.406;3.698;2022-12-17T16:16:20;11.00;91.80
70548;DHT22;58099;43.406;3.698;2022-12-17T16:18:45;10.90;91.90
70548;DHT22;58099;43.406;3.698;2022-12-17T16:21:11;10.80;91.70
70548;DHT22;58099;43.406;3.698;2022-12-17T16:23:37;10.70;91.90
70548;DHT22;58099;43.406;3.698;2022-12-17T16:26:05;10.70;92.20
70548;DHT22;58099;43.406;3.698;2022-12-17T16:28:32;10.70;92.00
70548;DHT22;58099;43.406;3.698;2022-12-17T16:31:04;10.70;92.40
70548;DHT22;58099;43.406;3.698;2022-12-17T16:33:31;10.80;92.40
70548;DHT22;58099;43.406;3.698;2022-12-17T16:35:57;10.80;92.10
70548;DHT22;58099;43.406;3.698;2022-12-17T16:38:26;10.70;92.00
70548;DHT22;58099;43.406;3.698;2022-12-17T16:40:56;10.60;92.30
70548;DHT22;58099;43.406;3.698;2022-12-17T16:43:23;10.60;92.90
70548;DHT22;58099;43.406;3.698;2022-12-17T16:45:50;10.30;92.80
70548;DHT22;58099;43.406;3.698;2022-12-17T16:48:16;10.10;93.00
70548;DHT22;58099;43.406;3.698;2022-12-17T16:50:44;9.90;92.30
70548;DHT22;58099;43.406;3.698;2022-12-17T16:53:11;9.90;92.70
70548;DHT22;58099;43.406;3.698;2022-12-17T16:55:45;10.00;93.70
70548;DHT22;58099;43.406;3.698;2022-12-17T16:58:11;10.10;93.80
70548;DHT22;58099;43.406;3.698;2022-12-17T17:00:37;10.10;93.70
70548;DHT22;58099;43.406;3.698;2022-12-17T17:03:04;10.00;93.80
70548;DHT22;58099;43.406;3.698;2022-12-17T17:05:35;9.90;93.60
70548;DHT22;58099;43.406;3.698;2022-12-17T17:08:02;9.70;93.60
70548;DHT22;58099;43.406;3.698;2022-12-17T17:10:28;9.70;93.80
70548;DHT22;58099;43.406;3.698;2022-12-17T17:12:55;9.70;94.20
70548;DHT22;58099;43.406;3.698;2022-12-17T17:15:21;9.70;94.20
70548;DHT22;58099;43.406;3.698;2022-12-17T17:17:47;9.70;93.90
70548;DHT22;58099;43.406;3.698;2022-12-17T17:20:13;9.70;94.10
70548;DHT22;58099;43.406;3.698;2022-12-17T17:22:39;9.70;94.00
70548;DHT22;58099;43.406;3.698;2022-12-17T17:25:05;9.60;94.10
70548;DHT22;58099;43.406;3.698;2022-12-17T17:27:31;9.60;94.10
70548;DHT22;58099;43.406;3.698;2022-12-17T17:29:57;9.60;93.90
70548;DHT22;58099;43.406;3.698;2022-12-17T17:32:23;9.60;93.50
70548;DHT22;58099;43.406;3.698;2022-12-17T17:34:50;9.40;93.20
70548;DHT22;58099;43.406;3.698;2022-12-17T17:37:16;9.40;93.50
70548;DHT22;58099;43.406;3.698;2022-12-17T17:39:42;9.30;93.40
70548;DHT22;58099;43.406;3.698;2022-12-17T17:42:07;9.10;93.90
70548;DHT22;58099;43.406;3.698;2022-12-17T17:44:34;9.10;94.20
70548;DHT22;58099;43.406;3.698;2022-12-17T17:47:00;9.00;94.30
70548;DHT22;58099;43.406;3.698;2022-12-17T17:49:26;9.00;94.70
70548;DHT22;58099;43.406;3.698;2022-12-17T17:51:51;9.10;94.80
70548;DHT22;58099;43.406;3.698;2022-12-17T17:54:17;9.00;94.90
70548;DHT22;58099;43.406;3.698;2022-12-17T17:56:43;9.00;95.00
70548;DHT22;58099;43.406;3.698;2022-12-17T17:59:11;9.00;95.40
70548;DHT22;58099;43.406;3.698;2022-12-17T18:01:40;8.90;95.50
70548;DHT22;58099;43.406;3.698;2022-12-17T18:04:08;8.90;96.10
70548;DHT22;58099;43.406;3.698;2022-12-17T18:06:39;8.80;96.40
70548;DHT22;58099;43.406;3.698;2022-12-17T18:09:06;8.80;97.00
70548;DHT22;58099;43.406;3.698;2022-12-17T18:11:33;8.90;97.30
70548;DHT22;58099;43.406;3.698;2022-12-17T18:14:03;8.70;97.20
70548;DHT22;58099;43.406;3.698;2022-12-17T18:16:43;8.70;97.20
70548;DHT22;58099;43.406;3.698;2022-12-17T18:19:15;8.50;97.30
70548;DHT22;58099;43.406;3.698;2022-12-17T18:21:41;8.40;97.60
70548;DHT22;58099;43.406;3.698;2022-12-17T18:24:10;8.40;97.60
70548;DHT22;58099;43.406;3.698;2022-12-17T18:26:37;8.40;97.40
70548;DHT22;58099;43.406;3.698;2022-12-17T18:29:14;8.20;97.60
70548;DHT22;58099;43.406;3.698;2022-12-17T18:31:40;8.20;97.90
70548;DHT22;58099;43.406;3.698;2022-12-17T18:34:06;8.20;97.90
70548;DHT22;58099;43.406;3.698;2022-12-17T18:36:36;8.10;97.70
70548;DHT22;58099;43.406;3.698;2022-12-17T18:39:10;8.20;97.70
70548;DHT22;58099;43.406;3.698;2022-12-17T18:41:36;8.20;97.60
70548;DHT22;58099;43.406;3.698;2022-12-17T18:44:20;8.20;98.00
70548;DHT22;58099;43.406;3.698;2022-12-17T18:46:46;8.10;97.90
70548;DHT22;58099;43.406;3.698;2022-12-17T18:49:13;8.20;98.20
70548;DHT22;58099;43.406;3.698;2022-12-17T18:51:41;8.30;98.20
70548;DHT22;58099;43.406;3.698;2022-12-17T18:54:08;8.30;98.10
70548;DHT22;58099;43.406;3.698;2022-12-17T18:56:36;8.30;97.90
70548;DHT22;58099;43.406;3.698;2022-12-17T18:59:03;8.20;98.00
70548;DHT22;58099;43.406;3.698;2022-12-17T19:01:31;8.20;98.10
70548;DHT22;58099;43.406;3.698;2022-12-17T19:04:04;8.20;98.30
70548;DHT22;58099;43.406;3.698;2022-12-17T19:06:30;8.20;98.50
70548;DHT22;58099;43.406;3.698;2022-12-17T19:08:56;8.10;98.30
70548;DHT22;58099;43.406;3.698;2022-12-17T19:11:22;8.00;98.20
70548;DHT22;58099;43.406;3.698;2022-12-17T19:13:48;8.00;98.30
70548;DHT22;58099;43.406;3.698;2022-12-17T19:16:20;8.00;98.70
70548;DHT22;58099;43.406;3.698;2022-12-17T19:18:57;8.00;98.80
70548;DHT22;58099;43.406;3.698;2022-12-17T19:21:25;8.10;98.80
70548;DHT22;58099;43.406;3.698;2022-12-17T19:23:56;8.10;98.70
70548;DHT22;58099;43.406;3.698;2022-12-17T19:26:23;8.10;98.90
70548;DHT22;58099;43.406;3.698;2022-12-17T19:28:50;7.90;98.80
70548;DHT22;58099;43.406;3.698;2022-12-17T19:31:18;7.90;99.00
70548;DHT22;58099;43.406;3.698;2022-12-17T19:33:45;7.90;99.30
70548;DHT22;58099;43.406;3.698;2022-12-17T19:36:17;8.00;99.30
70548;DHT22;58099;43.406;3.698;2022-12-17T19:38:43;8.00;99.20
70548;DHT22;58099;43.406;3.698;2022-12-17T19:41:12;7.80;98.90
70548;DHT22;58099;43.406;3.698;2022-12-17T19:43:39;7.70;99.10
70548;DHT22;58099;43.406;3.698;2022-12-17T19:46:10;7.80;99.40
70548;DHT22;58099;43.406;3.698;2022-12-17T19:48:38;7.70;99.10
70548;DHT22;58099;43.406;3.698;2022-12-17T19:51:05;7.70;99.00
70548;DHT22;58099;43.406;3.698;2022-12-17T19:53:32;7.70;99.00
70548;DHT22;58099;43.406;3.698;2022-12-17T19:58:34;7.50;98.70
70548;DHT22;58099;43.406;3.698;2022-12-17T20:01:11;7.50;98.70
70548;DHT22;58099;43.406;3.698;2022-12-17T20:03:38;7.50;99.20
70548;DHT22;58099;43.406;3.698;2022-12-17T20:06:05;7.50;99.10
70548;DHT22;58099;43.406;3.698;2022-12-17T20:08:31;7.50;99.10
70548;DHT22;58099;43.406;3.698;2022-12-17T20:10:59;7.40;99.20
70548;DHT22;58099;43.406;3.698;2022-12-17T20:13:26;7.40;99.40
70548;DHT22;58099;43.406;3.698;2022-12-17T20:16:03;7.30;99.40
70548;DHT22;58099;43.406;3.698;2022-12-17T20:18:29;7.40;99.60
70548;DHT22;58099;43.406;3.698;2022-12-17T20:21:05;7.40;99.40
70548;DHT22;58099;43.406;3.698;2022-12-17T20:23:31;7.50;99.30
70548;DHT22;58099;43.406;3.698;2022-12-17T20:26:06;7.40;99.40
70548;DHT22;58099;43.406;3.698;2022-12-17T20:28:32;7.40;99.60
70548;DHT22;58099;43.406;3.698;2022-12-17T20:30:59;7.30;99.70
70548;DHT22;58099;43.406;3.698;2022-12-17T20:33:25;7.30;99.90
70548;DHT22;58099;43.406;3.698;2022-12-17T20:35:51;7.20;99.90
70548;DHT22;58099;43.406;3.698;2022-12-17T20:38:18;7.20;99.90
70548;DHT22;58099;43.406;3.698;2022-12-17T20:40:44;7.20;99.90
70548;DHT22;58099;43.406;3.698;2022-12-17T20:43:09;7.00;99.90
70548;DHT22;58099;43.406;3.698;2022-12-17T20:45:35;7.00;99.90
70548;DHT22;58099;43.406;3.698;2022-12-17T20:48:01;6.90;99.90
70548;DHT22;58099;43.406;3.698;2022-12-17T20:50:27;6.90;99.90
70548;DHT22;58099;43.406;3.698;2022-12-17T20:52:53;6.90;99.90
70548;DHT22;58099;43.406;3.698;2022-12-17T20:55:19;6.90;99.90
70548;DHT22;58099;43.406;3.698;2022-12-17T20:57:44;6.90;99.90
70548;DHT22;58099;43.406;3.698;2022-12-17T21:00:11;7.00;99.90
70548;DHT22;58099;43.406;3.698;2022-12-17T21:02:37;7.00;99.90
70548;DHT22;58099;43.406;3.698;2022-12-17T21:05:03;6.90;99.90
70548;DHT22;58099;43.406;3.698;2022-12-17T21:07:29;6.80;99.90
70548;DHT22;58099;43.406;3.698;2022-12-17T21:09:55;6.90;99.90
70548;DHT22;58099;43.406;3.698;2022-12-17T21:12:21;6.80;99.90
70548;DHT22;58099;43.406;3.698;2022-12-17T21:14:47;6.80;99.90
70548;DHT22;58099;43.406;3.698;2022-12-17T21:17:13;6.70;99.90
70548;DHT22;58099;43.406;3.698;2022-12-17T21:19:39;6.60;99.90
70548;DHT22;58099;43.406;3.698;2022-12-17T21:22:05;6.70;99.90
70548;DHT22;58099;43.406;3.698;2022-12-17T21:24:30;6.70;99.90
70548;DHT22;58099;43.406;3.698;2022-12-17T21:26:56;6.60;99.90
70548;DHT22;58099;43.406;3.698;2022-12-17T21:29:22;6.70;99.90
70548;DHT22;58099;43.406;3.698;2022-12-17T21:31:50;6.60;99.90
70548;DHT22;58099;43.406;3.698;2022-12-17T21:34:18;6.60;99.90
70548;DHT22;58099;43.406;3.698;2022-12-17T21:36:49;6.50;99.90
70548;DHT22;58099;43.406;3.698;2022-12-17T21:39:17;6.50;99.90
70548;DHT22;58099;43.406;3.698;2022-12-17T21:41:44;6.50;99.90
70548;DHT22;58099;43.406;3.698;2022-12-17T21:44:29;6.50;99.90
70548;DHT22;58099;43.406;3.698;2022-12-17T21:46:55;6.50;99.90
70548;DHT22;58099;43.406;3.698;2022-12-17T21:49:21;6.40;99.90
70548;DHT22;58099;43.406;3.698;2022-12-17T21:51:46;6.40;99.90
70548;DHT22;58099;43.406;3.698;2022-12-17T21:54:12;6.40;99.90
70548;DHT22;58099;43.406;3.698;2022-12-17T21:56:38;6.20;99.90
70548;DHT22;58099;43.406;3.698;2022-12-17T21:59:03;6.20;99.90
70548;DHT22;58099;43.406;3.698;2022-12-17T22:01:31;6.30;99.90
70548;DHT22;58099;43.406;3.698;2022-12-17T22:03:59;6.30;99.90
70548;DHT22;58099;43.406;3.698;2022-12-17T22:06:26;6.20;99.90
70548;DHT22;58099;43.406;3.698;2022-12-17T22:08:52;6.20;99.90
70548;DHT22;58099;43.406;3.698;2022-12-17T22:11:21;6.20;99.90
70548;DHT22;58099;43.406;3.698;2022-12-17T22:13:48;6.20;99.90
70548;DHT22;58099;43.406;3.698;2022-12-17T22:16:42;6.20;99.90
70548;DHT22;58099;43.406;3.698;2022-12-17T22:19:21;6.30;99.90
70548;DHT22;58099;43.406;3.698;2022-12-17T22:21:50;6.30;99.90
70548;DHT22;58099;43.406;3.698;2022-12-17T22:24:18;6.30;99.90
70548;DHT22;58099;43.406;3.698;2022-12-17T22:26:44;6.10;99.90
70548;DHT22;58099;43.406;3.698;2022-12-17T22:29:10;6.10;99.90
70548;DHT22;58099;43.406;3.698;2022-12-17T22:31:36;6.10;99.90
70548;DHT22;58099;43.406;3.698;2022-12-17T22:34:20;6.20;99.90
70548;DHT22;58099;43.406;3.698;2022-12-17T22:36:46;6.20;99.90
70548;DHT22;58099;43.406;3.698;2022-12-17T22:39:13;6.00;99.90
70548;DHT22;58099;43.406;3.698;2022-12-17T22:41:40;6.00;99.90
70548;DHT22;58099;43.406;3.698;2022-12-17T22:44:25;5.90;99.90
70548;DHT22;58099;43.406;3.698;2022-12-17T22:46:51;5.90;99.90
70548;DHT22;58099;43.406;3.698;2022-12-17T22:49:18;5.80;99.90
70548;DHT22;58099;43.406;3.698;2022-12-17T22:51:44;5.90;99.90
70548;DHT22;58099;43.406;3.698;2022-12-17T22:54:11;6.00;99.90
70548;DHT22;58099;43.406;3.698;2022-12-17T22:56:39;5.90;99.90
70548;DHT22;58099;43.406;3.698;2022-12-17T22:59:05;5.90;99.90
70548;DHT22;58099;43.406;3.698;2022-12-17T23:01:32;5.70;99.90
70548;DHT22;58099;43.406;3.698;2022-12-17T23:03:59;5.60;99.90
70548;DHT22;58099;43.406;3.698;2022-12-17T23:06:25;5.60;99.90
70548;DHT22;58099;43.406;3.698;2022-12-17T23:08:51;5.70;99.90
70548;DHT22;58099;43.406;3.698;2022-12-17T23:11:24;5.70;99.90
70548;DHT22;58099;43.406;3.698;2022-12-17T23:13:50;5.60;99.90
70548;DHT22;58099;43.406;3.698;2022-12-17T23:16:17;5.50;99.90